Wanda, Minnesota
Current Conditions -  °F | °C
As of 10:53 AM on Friday 28 Nov 2014 (Local Time) from KRWF Reporting Station
Overcast Overcast  
Wind Chill:   Ceiling: 9500
Heat Index: 17°   Visibility: 10mi
Dew Point: 12°   Wind: 8mph
Humidity: 81%   Direction: 120°ESE
Pressure: 29.89"   Gusts: NA
Location:  44.32°N, 95.21°W
Report Text: KRWF 281653Z AUTO 12007KT 10SM FEW060 OVC095 M08/M11 A2989 RMK AO2 UPB08E44 SLP145 P0000 T10831111
Loading
Personal Weather Stations






























Interactive Weather Map New forecast layout! Learn more

10-Day Weather Forecast

Advertisements
Track Severe Weather on mobile